x

Sentry Shoal (46131) Weather Station

12:00 - Tue 2nd Sep 2014 All times are PDT. -7 hours from GMT.

  • Peak Period 2s
  • Wind
    7mph, 9mph gusts
  • Sea Temp 61°f
  • Luft Temp 58°f
  • Sea Pressure 1011.1mb
  • Sentry Shoal
  • Sentry Shoal

More Historic Weather Station data

Upgrade to MSW Pro to gain access to the past 30 days of data for over 8000 Wavebouys and Weather Stations around the globe.

Join Pro

Comparision Forecast

View Surf forecast
   
Di 09/02 12:00  -  2s 7 9 mph 1011.1mb 61f 58f
11:00 0.3ft 2s 9
mph
1011.2mb 62f 58f
10:00  -  2s 7 9 mph 1011.1mb 61f 59f
9:00 0.3ft 2s 9
mph
1011.8mb 62f 58f
8:00 0.3ft 2s 4 7 mph 1012.2mb 62f 58f
7:00 0.3ft 2s 4 7 mph 1012.6mb 63f 58f
6:00 0.3ft 3s 4 7 mph 1013mb 63f 60f
5:00 0.3ft 2s 7 9 mph 1013.8mb 63f 60f
4:00 0.3ft 3s 9
mph
1014.2mb 63f 60f
3:00 0.3ft 2s 7 9 mph 1014.5mb 63f 60f
2:00 0.3ft 2s 7 9 mph 1015mb 63f 59f
1:00 0.3ft 2s 9
mph
1015.2mb 63f 59f
12:00 0.3ft 2s 9 11 mph 1015.5mb 61f 59f
Mo 09/01 11:00 0.7ft 6s 7
mph
1015.7mb 61f 58f
10:00 0.7ft 3s 9 11 mph 1016.2mb 61f 59f
9:00 0.7ft 3s 11 13 mph 1016.5mb 61f 60f
8:00 0.7ft 3s 13 16 mph 1016mb 61f 61f
7:00 1ft 3s 4 7 mph 1016mb 61f 62f
6:00 1ft 3s 4 7 mph 1016.5mb 61f 63f
5:00 1.3ft 4s 9 11 mph 1016.6mb 61f 63f
4:00 1.3ft 4s 7 9 mph 1017.1mb 60f 62f
3:00 1.6ft 4s 9 11 mph 1017.1mb 59f 62f
2:00 1.6ft 4s 13 16 mph 1017.1mb 60f 62f
1:00 2ft 4s 11 13 mph 1017.2mb 60f 62f
12:00 2ft 4s 9 13 mph 1017mb 60f 62f
11:00 2ft 3s 13
mph
1017.1mb 60f 62f
10:00 2ft 3s 11 16 mph 1017mb 60f 62f
9:00 1.6ft 4s 13 16 mph 1016.9mb 61f 62f
8:00 1.6ft 3s 13 16 mph 1016.8mb 62f 62f
7:00 1.6ft 3s 16 18 mph 1016.4mb 62f 62f
6:00 1.3ft 3s 16 18 mph 1016.3mb 62f 63f
5:00 1ft 3s 16 18 mph 1016.2mb 62f 63f
4:00 1ft 3s 11 13 mph 1016.2mb 61f 63f
3:00 0.7ft 3s 4 9 mph 1016.5mb 61f 60f
2:00 0.7ft 3s 2
mph
1016.3mb 59f 61f
1:00 1ft 3s 2 4 mph 1016.3mb 59f 61f
12:00 1.3ft 3s 7 9 mph 1016.1mb 61f 60f
So 08/31 11:00 1.3ft 4s 9 11 mph 1016mb 61f 60f
10:00 1.3ft 4s 4 7 mph 1015.7mb 61f 61f
9:00 1.3ft 3s 16 18 mph 1015.3mb 60f 64f
8:00  -  2s 9 11 mph 1015.3mb 61f 64f
7:00 0.3ft 2s  -  mph 1015.5mb 62f 63f
6:00 0.3ft 2s 4
mph
1015.4mb 64f 63f
5:00  -  3s 4 7 mph 1015.5mb 65f 63f
3:00 0.3ft 5s 2 4 mph 1016mb 63f 63f
2:00  -  2s 2 4 mph 1016.5mb 65f 63f
1:00 0.3ft 4s 2 4 mph 1016.4mb 65f 62f
12:00  -  2s  -  mph 1016.6mb 62f 64f
11:00 0.3ft 3s  -  2 mph 1016.5mb 60f 60f
10:00  -  2s 2
mph
1016.4mb 60f 58f
9:00  -  2s 7
mph
1016.1mb 60f 58f
8:00  -  2s 7
mph
1015.9mb 61f 58f
7:00 0.3ft 2s 7 9 mph 1015.7mb 60f 58f
6:00 0.3ft 2s 9 11 mph 1015.5mb 60f 58f
5:00 0.3ft 3s 7 9 mph 1015.2mb 60f 58f
4:00 0.3ft 6s 4
mph
1015.1mb 61f 59f
3:00 0.3ft 5s 4 7 mph 1015.1mb 61f 59f
2:00  -  3s 4
mph
1014.6mb 61f 59f
1:00  -  2s 2 4 mph 1014.4mb 61f 59f
12:00  -  3s 4
mph
1013.8mb 60f 59f
Sa 08/30 11:00 0.3ft 2s 4
mph
1013.5mb 60f 59f
10:00 0.3ft 7s 7 9 mph 1013.4mb 59f 60f
9:00 0.7ft 7s 7 9 mph 1012.9mb 59f 60f
8:00 0.3ft 3s 2
mph
1012.2mb 60f 60f
7:00 0.3ft 3s 2 4 mph 1012mb 61f 61f
6:00 0.7ft 2s 7
mph
1012mb 62f 61f
5:00 0.7ft 3s 9 11 mph 1012.2mb 63f 60f
4:00 0.7ft 3s 7 9 mph 1012.4mb 62f 62f
3:00 1ft 3s 4
mph
1011.6mb 63f 63f
2:00 1ft 3s 7 9 mph 1011.7mb 62f 61f
1:00 1ft 3s 4
mph
1011.8mb 60f 61f
12:00 0.7ft 3s  -  2 mph 1011.8mb 60f 62f
11:00 0.7ft 3s 2 4 mph 1011.8mb 61f 61f
10:00 0.7ft 3s 2
mph
1011.5mb 59f 59f
9:00 0.7ft 3s 4
mph
1011.4mb 59f 58f
8:00 1ft 4s 7 9 mph 1011.3mb 58f 57f
7:00 1ft 4s 4 7 mph 1011.1mb 58f 58f
6:00 1ft 4s 2 4 mph 1011mb 59f 58f
5:00 1ft 4s 2
mph
1011.2mb 59f 58f
4:00 1ft 4s 4
mph
1011.5mb 59f 58f
3:00 1.3ft 4s 4
mph
1011.5mb 59f 58f
2:00 1.6ft 4s 7 9 mph 1011.7mb 59f 61f
1:00 1.6ft 4s 16 18 mph 1011.7mb 59f 62f
12:00 1.6ft 4s 9 11 mph 1011.9mb 59f 61f
Fr 08/29 11:00 2ft 4s 13 16 mph 1011.9mb 59f 62f
10:00 1.6ft 4s 16 18 mph 1011.9mb 59f 62f
9:00 1ft 3s 11 13 mph 1012.5mb 59f 62f